sensor_id;sensor_type;location;lat;lon;timestamp;temperature;humidity
37322;DHT22;23697;48.684;9.032;2023-02-17T00:02:20;7.10;69.10
37322;DHT22;23697;48.684;9.032;2023-02-17T00:04:47;7.10;69.40
37322;DHT22;23697;48.684;9.032;2023-02-17T00:07:14;7.10;69.50
37322;DHT22;23697;48.684;9.032;2023-02-17T00:09:40;7.10;69.60
37322;DHT22;23697;48.684;9.032;2023-02-17T00:12:09;7.10;69.80
37322;DHT22;23697;48.684;9.032;2023-02-17T00:14:37;7.10;69.80
37322;DHT22;23697;48.684;9.032;2023-02-17T00:17:04;7.10;69.90
37322;DHT22;23697;48.684;9.032;2023-02-17T00:19:31;7.10;70.20
37322;DHT22;23697;48.684;9.032;2023-02-17T00:22:00;7.00;70.50
37322;DHT22;23697;48.684;9.032;2023-02-17T00:24:28;7.10;70.50
37322;DHT22;23697;48.684;9.032;2023-02-17T00:26:56;7.00;70.70
37322;DHT22;23697;48.684;9.032;2023-02-17T00:29:24;7.00;70.80
37322;DHT22;23697;48.684;9.032;2023-02-17T00:31:51;7.00;71.00
37322;DHT22;23697;48.684;9.032;2023-02-17T00:34:18;7.00;71.40
37322;DHT22;23697;48.684;9.032;2023-02-17T00:36:45;7.10;71.50
37322;DHT22;23697;48.684;9.032;2023-02-17T00:39:13;7.10;71.40
37322;DHT22;23697;48.684;9.032;2023-02-17T00:41:41;7.20;71.50
37322;DHT22;23697;48.684;9.032;2023-02-17T00:44:15;7.20;71.60
37322;DHT22;23697;48.684;9.032;2023-02-17T00:46:44;7.30;71.60
37322;DHT22;23697;48.684;9.032;2023-02-17T00:49:15;7.40;71.50
37322;DHT22;23697;48.684;9.032;2023-02-17T00:51:43;7.40;71.30
37322;DHT22;23697;48.684;9.032;2023-02-17T00:54:09;7.40;71.30
37322;DHT22;23697;48.684;9.032;2023-02-17T00:56:36;7.40;71.30
37322;DHT22;23697;48.684;9.032;2023-02-17T00:59:03;7.40;71.30
37322;DHT22;23697;48.684;9.032;2023-02-17T01:01:31;7.40;71.50
37322;DHT22;23697;48.684;9.032;2023-02-17T01:03:59;7.40;71.60
37322;DHT22;23697;48.684;9.032;2023-02-17T01:06:29;7.40;71.60
37322;DHT22;23697;48.684;9.032;2023-02-17T01:08:55;7.40;71.50
37322;DHT22;23697;48.684;9.032;2023-02-17T01:11:25;7.50;71.40
37322;DHT22;23697;48.684;9.032;2023-02-17T01:13:54;7.60;71.40
37322;DHT22;23697;48.684;9.032;2023-02-17T01:16:23;7.50;71.40
37322;DHT22;23697;48.684;9.032;2023-02-17T01:18:50;7.50;71.50
37322;DHT22;23697;48.684;9.032;2023-02-17T01:21:20;7.40;71.60
37322;DHT22;23697;48.684;9.032;2023-02-17T01:23:47;7.40;71.50
37322;DHT22;23697;48.684;9.032;2023-02-17T01:26:15;7.50;71.50
37322;DHT22;23697;48.684;9.032;2023-02-17T01:28:43;7.50;71.40
37322;DHT22;23697;48.684;9.032;2023-02-17T01:31:10;7.50;71.30
37322;DHT22;23697;48.684;9.032;2023-02-17T01:33:37;7.50;71.40
37322;DHT22;23697;48.684;9.032;2023-02-17T01:36:06;7.50;71.50
37322;DHT22;23697;48.684;9.032;2023-02-17T01:38:35;7.50;71.40
37322;DHT22;23697;48.684;9.032;2023-02-17T01:41:03;7.50;71.40
37322;DHT22;23697;48.684;9.032;2023-02-17T01:43:30;7.50;71.40
37322;DHT22;23697;48.684;9.032;2023-02-17T01:45:58;7.50;71.30
37322;DHT22;23697;48.684;9.032;2023-02-17T01:48:28;7.50;71.40
37322;DHT22;23697;48.684;9.032;2023-02-17T01:51:00;7.40;71.30
37322;DHT22;23697;48.684;9.032;2023-02-17T01:53:31;7.30;71.50
37322;DHT22;23697;48.684;9.032;2023-02-17T01:56:01;7.30;71.60
37322;DHT22;23697;48.684;9.032;2023-02-17T01:58:29;7.20;71.80
37322;DHT22;23697;48.684;9.032;2023-02-17T02:00:59;7.20;71.80
37322;DHT22;23697;48.684;9.032;2023-02-17T02:03:28;7.20;72.00
37322;DHT22;23697;48.684;9.032;2023-02-17T02:05:57;7.20;71.90
37322;DHT22;23697;48.684;9.032;2023-02-17T02:08:27;7.20;72.00
37322;DHT22;23697;48.684;9.032;2023-02-17T02:10:55;7.20;72.00
37322;DHT22;23697;48.684;9.032;2023-02-17T02:13:23;7.10;72.10
37322;DHT22;23697;48.684;9.032;2023-02-17T02:15:54;7.10;72.00
37322;DHT22;23697;48.684;9.032;2023-02-17T02:18:35;7.10;72.10
37322;DHT22;23697;48.684;9.032;2023-02-17T02:21:28;7.10;72.20
37322;DHT22;23697;48.684;9.032;2023-02-17T02:24:10;7.10;72.30
37322;DHT22;23697;48.684;9.032;2023-02-17T02:30:14;7.10;72.20
37322;DHT22;23697;48.684;9.032;2023-02-17T02:32:56;7.10;72.10
37322;DHT22;23697;48.684;9.032;2023-02-17T02:35:29;7.10;72.20
37322;DHT22;23697;48.684;9.032;2023-02-17T02:38:00;7.10;72.10
37322;DHT22;23697;48.684;9.032;2023-02-17T02:40:33;7.20;71.90
37322;DHT22;23697;48.684;9.032;2023-02-17T02:43:03;7.20;71.80
37322;DHT22;23697;48.684;9.032;2023-02-17T02:45:30;7.20;71.70
37322;DHT22;23697;48.684;9.032;2023-02-17T02:47:58;7.20;71.80
37322;DHT22;23697;48.684;9.032;2023-02-17T02:50:36;7.20;71.80
37322;DHT22;23697;48.684;9.032;2023-02-17T02:53:22;7.20;71.80
37322;DHT22;23697;48.684;9.032;2023-02-17T02:55:57;7.20;71.80
37322;DHT22;23697;48.684;9.032;2023-02-17T02:58:33;7.20;71.70
37322;DHT22;23697;48.684;9.032;2023-02-17T03:01:05;7.20;71.60
37322;DHT22;23697;48.684;9.032;2023-02-17T03:03:42;7.30;71.30
37322;DHT22;23697;48.684;9.032;2023-02-17T03:06:14;7.30;71.30
37322;DHT22;23697;48.684;9.032;2023-02-17T03:08:45;7.20;71.40
37322;DHT22;23697;48.684;9.032;2023-02-17T03:11:14;7.10;71.40
37322;DHT22;23697;48.684;9.032;2023-02-17T03:13:59;7.10;71.50
37322;DHT22;23697;48.684;9.032;2023-02-17T03:16:26;7.20;71.50
37322;DHT22;23697;48.684;9.032;2023-02-17T03:18:55;7.10;71.60
37322;DHT22;23697;48.684;9.032;2023-02-17T03:21:22;7.10;71.80
37322;DHT22;23697;48.684;9.032;2023-02-17T03:23:51;7.10;71.90
37322;DHT22;23697;48.684;9.032;2023-02-17T03:26:18;7.10;72.10
37322;DHT22;23697;48.684;9.032;2023-02-17T03:28:45;7.10;72.10
37322;DHT22;23697;48.684;9.032;2023-02-17T03:31:11;7.10;72.10
37322;DHT22;23697;48.684;9.032;2023-02-17T03:33:38;7.10;72.10
37322;DHT22;23697;48.684;9.032;2023-02-17T03:36:07;7.20;71.90
37322;DHT22;23697;48.684;9.032;2023-02-17T03:38:34;7.30;71.70
37322;DHT22;23697;48.684;9.032;2023-02-17T03:41:00;7.30;71.60
37322;DHT22;23697;48.684;9.032;2023-02-17T03:43:27;7.30;71.60
37322;DHT22;23697;48.684;9.032;2023-02-17T03:45:54;7.10;71.70
37322;DHT22;23697;48.684;9.032;2023-02-17T03:48:21;7.10;72.00
37322;DHT22;23697;48.684;9.032;2023-02-17T03:50:48;7.10;72.10
37322;DHT22;23697;48.684;9.032;2023-02-17T03:53:16;7.00;72.30
37322;DHT22;23697;48.684;9.032;2023-02-17T03:55:43;6.90;72.30
37322;DHT22;23697;48.684;9.032;2023-02-17T03:58:10;6.90;72.40
37322;DHT22;23697;48.684;9.032;2023-02-17T04:00:37;6.90;72.60
37322;DHT22;23697;48.684;9.032;2023-02-17T04:03:03;6.90;72.70
37322;DHT22;23697;48.684;9.032;2023-02-17T04:05:30;6.90;72.90
37322;DHT22;23697;48.684;9.032;2023-02-17T04:07:57;6.90;73.00
37322;DHT22;23697;48.684;9.032;2023-02-17T04:10:25;7.10;73.10
37322;DHT22;23697;48.684;9.032;2023-02-17T04:12:52;7.20;72.90
37322;DHT22;23697;48.684;9.032;2023-02-17T04:15:19;7.30;72.70
37322;DHT22;23697;48.684;9.032;2023-02-17T04:17:46;7.30;72.60
37322;DHT22;23697;48.684;9.032;2023-02-17T04:20:13;7.40;72.40
37322;DHT22;23697;48.684;9.032;2023-02-17T04:22:39;7.40;72.40
37322;DHT22;23697;48.684;9.032;2023-02-17T04:25:06;7.50;72.20
37322;DHT22;23697;48.684;9.032;2023-02-17T04:27:35;7.40;72.10
37322;DHT22;23697;48.684;9.032;2023-02-17T04:30:02;7.40;72.20
37322;DHT22;23697;48.684;9.032;2023-02-17T04:32:29;7.40;72.30
37322;DHT22;23697;48.684;9.032;2023-02-17T04:34:56;7.40;72.60
37322;DHT22;23697;48.684;9.032;2023-02-17T04:37:22;7.50;72.60
37322;DHT22;23697;48.684;9.032;2023-02-17T04:39:49;7.60;72.50
37322;DHT22;23697;48.684;9.032;2023-02-17T04:42:16;7.60;72.60
37322;DHT22;23697;48.684;9.032;2023-02-17T04:44:44;7.50;72.70
37322;DHT22;23697;48.684;9.032;2023-02-17T04:47:11;7.50;72.90
37322;DHT22;23697;48.684;9.032;2023-02-17T04:49:38;7.60;73.00
37322;DHT22;23697;48.684;9.032;2023-02-17T04:52:05;7.60;72.90
37322;DHT22;23697;48.684;9.032;2023-02-17T04:54:32;7.50;73.10
37322;DHT22;23697;48.684;9.032;2023-02-17T04:56:59;7.60;73.10
37322;DHT22;23697;48.684;9.032;2023-02-17T04:59:25;7.80;72.80
37322;DHT22;23697;48.684;9.032;2023-02-17T05:01:54;7.80;73.00
37322;DHT22;23697;48.684;9.032;2023-02-17T05:04:20;7.80;73.00
37322;DHT22;23697;48.684;9.032;2023-02-17T05:06:47;7.80;73.20
37322;DHT22;23697;48.684;9.032;2023-02-17T05:09:14;8.00;73.70
37322;DHT22;23697;48.684;9.032;2023-02-17T05:11:41;8.00;73.70
37322;DHT22;23697;48.684;9.032;2023-02-17T05:14:08;8.00;74.00
37322;DHT22;23697;48.684;9.032;2023-02-17T05:16:35;8.00;74.30
37322;DHT22;23697;48.684;9.032;2023-02-17T05:19:03;8.10;74.30
37322;DHT22;23697;48.684;9.032;2023-02-17T05:21:30;8.10;74.40
37322;DHT22;23697;48.684;9.032;2023-02-17T05:23:57;8.10;74.40
37322;DHT22;23697;48.684;9.032;2023-02-17T05:26:24;8.10;74.70
37322;DHT22;23697;48.684;9.032;2023-02-17T05:28:51;8.10;75.10
37322;DHT22;23697;48.684;9.032;2023-02-17T05:31:18;8.10;75.10
37322;DHT22;23697;48.684;9.032;2023-02-17T05:33:45;8.10;75.30
37322;DHT22;23697;48.684;9.032;2023-02-17T05:36:14;8.10;75.40
37322;DHT22;23697;48.684;9.032;2023-02-17T05:38:41;8.10;75.50
37322;DHT22;23697;48.684;9.032;2023-02-17T05:41:09;8.20;75.60
37322;DHT22;23697;48.684;9.032;2023-02-17T05:43:36;8.20;75.50
37322;DHT22;23697;48.684;9.032;2023-02-17T05:46:03;8.10;75.60
37322;DHT22;23697;48.684;9.032;2023-02-17T05:48:31;8.10;75.70
37322;DHT22;23697;48.684;9.032;2023-02-17T05:50:58;8.10;75.80
37322;DHT22;23697;48.684;9.032;2023-02-17T05:53:26;8.10;75.80
37322;DHT22;23697;48.684;9.032;2023-02-17T05:55:53;8.10;76.10
37322;DHT22;23697;48.684;9.032;2023-02-17T05:58:20;8.10;76.10
37322;DHT22;23697;48.684;9.032;2023-02-17T06:00:47;8.20;76.10
37322;DHT22;23697;48.684;9.032;2023-02-17T06:03:14;8.30;76.10
37322;DHT22;23697;48.684;9.032;2023-02-17T06:05:41;8.30;76.10
37322;DHT22;23697;48.684;9.032;2023-02-17T06:08:07;8.40;76.00
37322;DHT22;23697;48.684;9.032;2023-02-17T06:10:36;8.40;75.80
37322;DHT22;23697;48.684;9.032;2023-02-17T06:13:03;8.40;75.80
37322;DHT22;23697;48.684;9.032;2023-02-17T06:15:29;8.40;75.90
37322;DHT22;23697;48.684;9.032;2023-02-17T06:17:56;8.40;76.10
37322;DHT22;23697;48.684;9.032;2023-02-17T06:20:23;8.30;76.10
37322;DHT22;23697;48.684;9.032;2023-02-17T06:22:50;8.40;76.00
37322;DHT22;23697;48.684;9.032;2023-02-17T06:25:23;8.50;75.90
37322;DHT22;23697;48.684;9.032;2023-02-17T06:27:51;8.40;75.90
37322;DHT22;23697;48.684;9.032;2023-02-17T06:30:18;8.40;76.00
37322;DHT22;23697;48.684;9.032;2023-02-17T06:32:45;8.30;76.20
37322;DHT22;23697;48.684;9.032;2023-02-17T06:35:12;8.20;76.40
37322;DHT22;23697;48.684;9.032;2023-02-17T06:37:39;8.20;76.50
37322;DHT22;23697;48.684;9.032;2023-02-17T06:40:07;8.20;76.70
37322;DHT22;23697;48.684;9.032;2023-02-17T06:42:34;8.10;76.90
37322;DHT22;23697;48.684;9.032;2023-02-17T06:45:03;8.10;77.30
37322;DHT22;23697;48.684;9.032;2023-02-17T06:47:30;8.10;77.50
37322;DHT22;23697;48.684;9.032;2023-02-17T06:49:57;8.10;77.50
37322;DHT22;23697;48.684;9.032;2023-02-17T06:52:24;8.10;77.60
37322;DHT22;23697;48.684;9.032;2023-02-17T06:54:51;8.10;77.60
37322;DHT22;23697;48.684;9.032;2023-02-17T06:57:18;8.10;77.60
37322;DHT22;23697;48.684;9.032;2023-02-17T06:59:45;8.10;77.70
37322;DHT22;23697;48.684;9.032;2023-02-17T07:02:13;8.10;77.50
37322;DHT22;23697;48.684;9.032;2023-02-17T07:04:41;8.10;77.50
37322;DHT22;23697;48.684;9.032;2023-02-17T07:07:09;8.10;77.40
37322;DHT22;23697;48.684;9.032;2023-02-17T07:09:36;8.20;77.40
37322;DHT22;23697;48.684;9.032;2023-02-17T07:12:04;8.20;77.30
37322;DHT22;23697;48.684;9.032;2023-02-17T07:14:31;8.20;77.40
37322;DHT22;23697;48.684;9.032;2023-02-17T07:16:58;8.30;77.30
37322;DHT22;23697;48.684;9.032;2023-02-17T07:19:26;8.30;77.20
37322;DHT22;23697;48.684;9.032;2023-02-17T07:21:53;8.40;77.30
37322;DHT22;23697;48.684;9.032;2023-02-17T07:24:20;8.40;77.10
37322;DHT22;23697;48.684;9.032;2023-02-17T07:26:47;8.50;77.30
37322;DHT22;23697;48.684;9.032;2023-02-17T07:29:14;8.60;77.30
37322;DHT22;23697;48.684;9.032;2023-02-17T07:31:41;8.60;77.30
37322;DHT22;23697;48.684;9.032;2023-02-17T07:34:08;8.60;77.30
37322;DHT22;23697;48.684;9.032;2023-02-17T07:36:36;8.60;77.30
37322;DHT22;23697;48.684;9.032;2023-02-17T07:39:03;8.60;77.50
37322;DHT22;23697;48.684;9.032;2023-02-17T07:41:31;8.60;77.60
37322;DHT22;23697;48.684;9.032;2023-02-17T07:43:58;8.60;77.70
37322;DHT22;23697;48.684;9.032;2023-02-17T07:46:25;8.60;77.70
37322;DHT22;23697;48.684;9.032;2023-02-17T07:48:52;8.70;78.00
37322;DHT22;23697;48.684;9.032;2023-02-17T07:51:21;8.70;78.00
37322;DHT22;23697;48.684;9.032;2023-02-17T07:53:50;8.70;78.00
37322;DHT22;23697;48.684;9.032;2023-02-17T07:56:20;8.80;77.90
37322;DHT22;23697;48.684;9.032;2023-02-17T07:58:47;8.90;78.10
37322;DHT22;23697;48.684;9.032;2023-02-17T08:01:17;8.80;78.20
37322;DHT22;23697;48.684;9.032;2023-02-17T08:03:45;8.90;78.30
37322;DHT22;23697;48.684;9.032;2023-02-17T08:06:14;9.00;78.20
37322;DHT22;23697;48.684;9.032;2023-02-17T08:08:41;9.00;78.10
37322;DHT22;23697;48.684;9.032;2023-02-17T08:11:28;9.10;78.20
37322;DHT22;23697;48.684;9.032;2023-02-17T08:14:13;9.10;78.30
37322;DHT22;23697;48.684;9.032;2023-02-17T08:16:40;9.10;78.20
37322;DHT22;23697;48.684;9.032;2023-02-17T08:19:07;9.20;78.20
37322;DHT22;23697;48.684;9.032;2023-02-17T08:21:34;9.40;78.00
37322;DHT22;23697;48.684;9.032;2023-02-17T08:24:01;9.60;77.90
37322;DHT22;23697;48.684;9.032;2023-02-17T08:26:29;9.70;77.40
37322;DHT22;23697;48.684;9.032;2023-02-17T08:28:56;10.00;76.60
37322;DHT22;23697;48.684;9.032;2023-02-17T08:31:24;10.10;76.60
37322;DHT22;23697;48.684;9.032;2023-02-17T08:33:51;10.10;75.90
37322;DHT22;23697;48.684;9.032;2023-02-17T08:36:18;10.10;76.00
37322;DHT22;23697;48.684;9.032;2023-02-17T08:38:46;10.00;76.20
37322;DHT22;23697;48.684;9.032;2023-02-17T08:41:17;10.00;76.50
37322;DHT22;23697;48.684;9.032;2023-02-17T08:43:45;10.00;76.60
37322;DHT22;23697;48.684;9.032;2023-02-17T08:46:13;10.00;76.80
37322;DHT22;23697;48.684;9.032;2023-02-17T08:48:40;10.10;76.80
37322;DHT22;23697;48.684;9.032;2023-02-17T08:51:11;10.10;76.90
37322;DHT22;23697;48.684;9.032;2023-02-17T08:53:38;10.10;76.90
37322;DHT22;23697;48.684;9.032;2023-02-17T08:56:05;10.10;76.90
37322;DHT22;23697;48.684;9.032;2023-02-17T08:58:32;10.30;76.80
37322;DHT22;23697;48.684;9.032;2023-02-17T09:01:00;10.30;76.40
37322;DHT22;23697;48.684;9.032;2023-02-17T09:03:27;10.20;76.60
37322;DHT22;23697;48.684;9.032;2023-02-17T09:05:55;10.10;76.60
37322;DHT22;23697;48.684;9.032;2023-02-17T09:08:22;10.10;76.80
37322;DHT22;23697;48.684;9.032;2023-02-17T09:10:50;10.00;77.10
37322;DHT22;23697;48.684;9.032;2023-02-17T09:13:17;9.90;77.40
37322;DHT22;23697;48.684;9.032;2023-02-17T09:15:44;9.80;77.70
37322;DHT22;23697;48.684;9.032;2023-02-17T09:18:12;9.80;77.80
37322;DHT22;23697;48.684;9.032;2023-02-17T09:20:39;9.80;78.00
37322;DHT22;23697;48.684;9.032;2023-02-17T09:23:06;9.80;78.20
37322;DHT22;23697;48.684;9.032;2023-02-17T09:25:33;9.80;78.40
37322;DHT22;23697;48.684;9.032;2023-02-17T09:28:02;9.70;78.70
37322;DHT22;23697;48.684;9.032;2023-02-17T09:30:29;9.70;78.90
37322;DHT22;23697;48.684;9.032;2023-02-17T09:32:56;9.70;79.00
37322;DHT22;23697;48.684;9.032;2023-02-17T09:35:25;9.80;79.00
37322;DHT22;23697;48.684;9.032;2023-02-17T09:37:52;9.80;79.10
37322;DHT22;23697;48.684;9.032;2023-02-17T09:40:22;9.90;79.00
37322;DHT22;23697;48.684;9.032;2023-02-17T09:42:49;9.90;79.00
37322;DHT22;23697;48.684;9.032;2023-02-17T09:45:20;9.90;79.00
37322;DHT22;23697;48.684;9.032;2023-02-17T09:47:50;10.10;79.00
37322;DHT22;23697;48.684;9.032;2023-02-17T09:50:22;10.20;78.70
37322;DHT22;23697;48.684;9.032;2023-02-17T09:53:05;10.20;78.60
37322;DHT22;23697;48.684;9.032;2023-02-17T09:55:40;10.30;78.30
37322;DHT22;23697;48.684;9.032;2023-02-17T09:58:16;10.40;78.30
37322;DHT22;23697;48.684;9.032;2023-02-17T10:01:00;10.40;78.10
37322;DHT22;23697;48.684;9.032;2023-02-17T10:03:35;10.50;78.20
37322;DHT22;23697;48.684;9.032;2023-02-17T10:06:11;10.60;78.20
37322;DHT22;23697;48.684;9.032;2023-02-17T10:08:47;10.80;78.30
37322;DHT22;23697;48.684;9.032;2023-02-17T10:11:23;11.30;77.00
37322;DHT22;23697;48.684;9.032;2023-02-17T10:14:03;11.80;75.70
37322;DHT22;23697;48.684;9.032;2023-02-17T10:16:34;11.90;74.20
37322;DHT22;23697;48.684;9.032;2023-02-17T10:19:09;11.80;73.80
37322;DHT22;23697;48.684;9.032;2023-02-17T10:21:42;11.70;74.20
37322;DHT22;23697;48.684;9.032;2023-02-17T10:24:11;11.50;74.90
37322;DHT22;23697;48.684;9.032;2023-02-17T10:26:47;11.40;75.30
37322;DHT22;23697;48.684;9.032;2023-02-17T10:29:32;11.20;75.70
37322;DHT22;23697;48.684;9.032;2023-02-17T10:32:10;11.10;76.20
37322;DHT22;23697;48.684;9.032;2023-02-17T10:34:49;11.10;76.50
37322;DHT22;23697;48.684;9.032;2023-02-17T10:37:26;11.10;76.70
37322;DHT22;23697;48.684;9.032;2023-02-17T10:39:58;11.10;76.70
37322;DHT22;23697;48.684;9.032;2023-02-17T10:42:28;11.10;76.80
37322;DHT22;23697;48.684;9.032;2023-02-17T10:44:59;11.20;76.60
37322;DHT22;23697;48.684;9.032;2023-02-17T10:47:37;11.30;76.50
37322;DHT22;23697;48.684;9.032;2023-02-17T10:50:18;11.40;76.40
37322;DHT22;23697;48.684;9.032;2023-02-17T10:52:49;11.50;76.10
37322;DHT22;23697;48.684;9.032;2023-02-17T10:55:20;11.50;76.10
37322;DHT22;23697;48.684;9.032;2023-02-17T10:57:53;11.50;76.30
37322;DHT22;23697;48.684;9.032;2023-02-17T11:00:23;11.50;76.40
37322;DHT22;23697;48.684;9.032;2023-02-17T11:02:51;11.60;76.40
37322;DHT22;23697;48.684;9.032;2023-02-17T11:05:23;11.60;76.50
37322;DHT22;23697;48.684;9.032;2023-02-17T11:07:55;11.70;76.30
37322;DHT22;23697;48.684;9.032;2023-02-17T11:10:29;11.70;76.10
37322;DHT22;23697;48.684;9.032;2023-02-17T11:12:57;11.80;75.90
37322;DHT22;23697;48.684;9.032;2023-02-17T11:15:28;12.00;75.90
37322;DHT22;23697;48.684;9.032;2023-02-17T11:17:55;12.10;75.20
37322;DHT22;23697;48.684;9.032;2023-02-17T11:20:31;12.20;74.90
37322;DHT22;23697;48.684;9.032;2023-02-17T11:23:05;12.40;74.90
37322;DHT22;23697;48.684;9.032;2023-02-17T11:25:35;12.60;74.30
37322;DHT22;23697;48.684;9.032;2023-02-17T11:28:04;12.80;73.50
37322;DHT22;23697;48.684;9.032;2023-02-17T11:30:33;13.10;72.80
37322;DHT22;23697;48.684;9.032;2023-02-17T11:33:11;13.30;71.90
37322;DHT22;23697;48.684;9.032;2023-02-17T11:35:49;13.40;71.50
37322;DHT22;23697;48.684;9.032;2023-02-17T11:38:19;13.50;71.80
37322;DHT22;23697;48.684;9.032;2023-02-17T11:40:54;13.40;71.00
37322;DHT22;23697;48.684;9.032;2023-02-17T11:43:22;13.20;71.40
37322;DHT22;23697;48.684;9.032;2023-02-17T11:45:55;13.10;72.00
37322;DHT22;23697;48.684;9.032;2023-02-17T11:48:48;13.00;72.50
37322;DHT22;23697;48.684;9.032;2023-02-17T11:51:23;13.00;72.60
37322;DHT22;23697;48.684;9.032;2023-02-17T11:54:01;12.90;72.80
37322;DHT22;23697;48.684;9.032;2023-02-17T11:56:35;12.80;73.00
37322;DHT22;23697;48.684;9.032;2023-02-17T11:59:20;12.70;73.30
37322;DHT22;23697;48.684;9.032;2023-02-17T12:02:16;12.50;73.90
37322;DHT22;23697;48.684;9.032;2023-02-17T12:05:03;12.40;74.20
37322;DHT22;23697;48.684;9.032;2023-02-17T12:07:45;12.40;74.60
37322;DHT22;23697;48.684;9.032;2023-02-17T12:10:25;12.30;74.80
37322;DHT22;23697;48.684;9.032;2023-02-17T12:13:14;12.30;74.80
37322;DHT22;23697;48.684;9.032;2023-02-17T12:15:53;12.10;75.10
37322;DHT22;23697;48.684;9.032;2023-02-17T12:18:36;12.10;75.30
37322;DHT22;23697;48.684;9.032;2023-02-17T12:21:09;12.10;75.70
37322;DHT22;23697;48.684;9.032;2023-02-17T12:23:54;12.00;76.10
37322;DHT22;23697;48.684;9.032;2023-02-17T12:26:26;12.10;76.10
37322;DHT22;23697;48.684;9.032;2023-02-17T12:29:09;12.10;76.00
37322;DHT22;23697;48.684;9.032;2023-02-17T12:31:54;12.00;76.00
37322;DHT22;23697;48.684;9.032;2023-02-17T12:34:29;12.00;76.10
37322;DHT22;23697;48.684;9.032;2023-02-17T12:37:05;12.00;76.10
37322;DHT22;23697;48.684;9.032;2023-02-17T12:39:39;12.00;76.20
37322;DHT22;23697;48.684;9.032;2023-02-17T12:42:12;12.00;76.20
37322;DHT22;23697;48.684;9.032;2023-02-17T12:44:44;12.00;76.30
37322;DHT22;23697;48.684;9.032;2023-02-17T12:47:14;12.10;76.10
37322;DHT22;23697;48.684;9.032;2023-02-17T12:49:45;12.20;75.90
37322;DHT22;23697;48.684;9.032;2023-02-17T12:52:17;12.40;75.60
37322;DHT22;23697;48.684;9.032;2023-02-17T12:54:50;12.50;75.20
37322;DHT22;23697;48.684;9.032;2023-02-17T12:57:21;12.60;74.80
37322;DHT22;23697;48.684;9.032;2023-02-17T12:59:52;12.60;74.60
37322;DHT22;23697;48.684;9.032;2023-02-17T13:02:21;12.60;74.50
37322;DHT22;23697;48.684;9.032;2023-02-17T13:04:50;12.60;74.40
37322;DHT22;23697;48.684;9.032;2023-02-17T13:07:40;12.60;74.70
37322;DHT22;23697;48.684;9.032;2023-02-17T13:10:17;12.70;74.50
37322;DHT22;23697;48.684;9.032;2023-02-17T13:12:55;12.70;74.50
37322;DHT22;23697;48.684;9.032;2023-02-17T13:15:28;12.70;74.10
37322;DHT22;23697;48.684;9.032;2023-02-17T13:17:58;12.70;74.30
37322;DHT22;23697;48.684;9.032;2023-02-17T13:23:24;12.70;74.50
37322;DHT22;23697;48.684;9.032;2023-02-17T13:28:44;12.60;74.90
37322;DHT22;23697;48.684;9.032;2023-02-17T13:31:15;12.60;75.00
37322;DHT22;23697;48.684;9.032;2023-02-17T13:33:45;12.60;75.10
37322;DHT22;23697;48.684;9.032;2023-02-17T13:36:21;12.60;75.20
37322;DHT22;23697;48.684;9.032;2023-02-17T13:39:00;12.50;75.40
37322;DHT22;23697;48.684;9.032;2023-02-17T13:41:28;12.40;75.50
37322;DHT22;23697;48.684;9.032;2023-02-17T13:43:58;12.50;75.70
37322;DHT22;23697;48.684;9.032;2023-02-17T13:46:26;12.50;75.70
37322;DHT22;23697;48.684;9.032;2023-02-17T13:49:02;12.50;75.80
37322;DHT22;23697;48.684;9.032;2023-02-17T13:51:31;12.50;75.90
37322;DHT22;23697;48.684;9.032;2023-02-17T13:54:05;12.60;75.80
37322;DHT22;23697;48.684;9.032;2023-02-17T13:56:32;12.60;75.70
37322;DHT22;23697;48.684;9.032;2023-02-17T13:59:07;12.70;75.60
37322;DHT22;23697;48.684;9.032;2023-02-17T14:01:37;12.80;75.60
37322;DHT22;23697;48.684;9.032;2023-02-17T14:04:16;12.90;75.30
37322;DHT22;23697;48.684;9.032;2023-02-17T14:06:44;13.00;74.70
37322;DHT22;23697;48.684;9.032;2023-02-17T14:09:19;13.10;74.50
37322;DHT22;23697;48.684;9.032;2023-02-17T14:11:48;13.10;74.40
37322;DHT22;23697;48.684;9.032;2023-02-17T14:14:15;13.00;74.50
37322;DHT22;23697;48.684;9.032;2023-02-17T14:16:43;13.10;74.40
37322;DHT22;23697;48.684;9.032;2023-02-17T14:19:12;13.10;74.20
37322;DHT22;23697;48.684;9.032;2023-02-17T14:21:41;13.10;74.20
37322;DHT22;23697;48.684;9.032;2023-02-17T14:24:23;13.10;73.70
37322;DHT22;23697;48.684;9.032;2023-02-17T14:26:55;13.10;74.00
37322;DHT22;23697;48.684;9.032;2023-02-17T14:29:22;12.90;74.20
37322;DHT22;23697;48.684;9.032;2023-02-17T14:31:52;12.80;74.50
37322;DHT22;23697;48.684;9.032;2023-02-17T14:34:30;12.70;74.60
37322;DHT22;23697;48.684;9.032;2023-02-17T14:37:06;12.60;75.10
37322;DHT22;23697;48.684;9.032;2023-02-17T14:39:34;12.60;75.30
37322;DHT22;23697;48.684;9.032;2023-02-17T14:42:06;12.50;75.40
37322;DHT22;23697;48.684;9.032;2023-02-17T14:44:33;12.50;75.50
37322;DHT22;23697;48.684;9.032;2023-02-17T14:47:01;12.40;75.50
37322;DHT22;23697;48.684;9.032;2023-02-17T14:49:28;12.40;75.80
37322;DHT22;23697;48.684;9.032;2023-02-17T14:51:55;12.50;75.50
37322;DHT22;23697;48.684;9.032;2023-02-17T14:54:22;12.30;75.70
37322;DHT22;23697;48.684;9.032;2023-02-17T14:56:56;12.30;75.80
37322;DHT22;23697;48.684;9.032;2023-02-17T14:59:25;12.20;76.20
37322;DHT22;23697;48.684;9.032;2023-02-17T15:01:52;12.40;76.30
37322;DHT22;23697;48.684;9.032;2023-02-17T15:04:21;12.60;75.90
37322;DHT22;23697;48.684;9.032;2023-02-17T15:06:49;12.60;74.80
37322;DHT22;23697;48.684;9.032;2023-02-17T15:09:25;12.60;75.10
37322;DHT22;23697;48.684;9.032;2023-02-17T15:11:55;12.60;74.80
37322;DHT22;23697;48.684;9.032;2023-02-17T15:14:22;12.70;74.70
37322;DHT22;23697;48.684;9.032;2023-02-17T15:16:49;12.80;74.20
37322;DHT22;23697;48.684;9.032;2023-02-17T15:19:16;12.90;74.10
37322;DHT22;23697;48.684;9.032;2023-02-17T15:21:46;12.90;74.00
37322;DHT22;23697;48.684;9.032;2023-02-17T15:24:16;12.80;74.50
37322;DHT22;23697;48.684;9.032;2023-02-17T15:26:44;12.70;74.60
37322;DHT22;23697;48.684;9.032;2023-02-17T15:29:14;12.60;74.90
37322;DHT22;23697;48.684;9.032;2023-02-17T15:31:42;12.50;75.00
37322;DHT22;23697;48.684;9.032;2023-02-17T15:34:13;12.40;75.30
37322;DHT22;23697;48.684;9.032;2023-02-17T15:36:40;12.40;75.50
37322;DHT22;23697;48.684;9.032;2023-02-17T15:39:10;12.30;75.60
37322;DHT22;23697;48.684;9.032;2023-02-17T15:41:37;12.20;75.70
37322;DHT22;23697;48.684;9.032;2023-02-17T15:44:07;12.10;76.00
37322;DHT22;23697;48.684;9.032;2023-02-17T15:46:37;12.10;76.30
37322;DHT22;23697;48.684;9.032;2023-02-17T15:49:07;12.00;76.40
37322;DHT22;23697;48.684;9.032;2023-02-17T15:51:34;11.90;76.60
37322;DHT22;23697;48.684;9.032;2023-02-17T15:54:01;11.90;76.70
37322;DHT22;23697;48.684;9.032;2023-02-17T15:56:31;11.80;77.00
37322;DHT22;23697;48.684;9.032;2023-02-17T15:59:03;11.70;77.20
37322;DHT22;23697;48.684;9.032;2023-02-17T16:01:33;11.70;77.50
37322;DHT22;23697;48.684;9.032;2023-02-17T16:04:01;11.70;77.50
37322;DHT22;23697;48.684;9.032;2023-02-17T16:06:29;11.60;77.50
37322;DHT22;23697;48.684;9.032;2023-02-17T16:08:56;11.60;77.70